Terminal Aerodrome Forecast
Issued by NWS Northern Indiana

Home | Current Version | Previous Version | Graphics & Text | Print | Product List | Glossary On
Versions: 1 2 3 4 5 6 7 8 9 10 11 12 13 14 15 16 17 18
000
FTUS43 KIWX 292300
TAFFWA
TAF
KFWA 292338Z 3000/3024 30013G20KT 3SM -SNRA BR BKN012 OVC020
     FM300600 31017G24KT P6SM OVC030
     FM301500 36012KT P6SM SCT250=

USA.gov is the U.S. government's official web portal to all federal, state and local government web resources and services.